Aérodrome :
LOGIN :

S'inscrire | Disclaimer

   EN    FR    IT 

 










Légende :    VFR   VFR Marginal   IFR   IFR Intensif   IFR Très Intensif
Visi : 
Plafond : 
>= 8 km
>= 3000ft
5 à 8 km
1000 à 3000 ft
1500m à 5 km
500 à 1000 ft
800 à 1500m
200 à 500 ft
< 800m
< 200 ft
Symboles :   Orages  Brouillard  Fortes neiges  Fortes précipitations  Vent > 20 kt
SIGMETs :   Divers  Orages  Givrage  Turbulence  Onde Orograph.  Cendres Volcan.






- Altitude de l'aérodrome : 776 ft
- Code IATA : RMS


ETAR - Ramstein Air Base

DERNIER METAR :
  • 210356Z AUTO 00000KT 9999 CLR M01/M01 A2998 RMK AO2 SLP160 T10061006 FZRANO $

METARs EXPIRÉS :
  • 210256Z AUTO 00000KT 9999 CLR 00/00 A2999 RMK AO2 SLP164 T00010001 55002 FZRANO
  • 210156Z AUTO 00000KT 9999 CLR 01/01 A2998 RMK AO2 SLP160 T00100010 FZRANO $

TAF TAF ETAR
Valide du 21 à 02h jusqu'au 22 à 08h UTC


210200Z 2102/2208 VRB06KT 9999 FEW060 QNH2997INS
TEMPO 2104/2106 5000 BR
BECMG 2111/2112 01009KT 9999 SCT050 QNH2996INS
TEMPO 2113/2117 9000 -SHRA BKN050
BECMG 2204/2205 04010G15KT 9999 FEW020 BKN080 QNH3014INS TX16/2114Z TN00/2104Z



MET'MAP, la Météo Aéronautique d'un coup d'oeil ! - Copyright ORBIFLY Décembre 2007 - Disclaimer

ORBIFLY MET'MAP TEAM :

Programmation & Développement : Alexandra Zaïnal
Sur une idée originale de : Baudouin d'Aumeries
Assistance à la programmation : Marc-Olivier Méhu
Soutien technique & logistique : Manuel Goepfert

Contact : metmap@orbifly.com




SOURCES & CREDITS :

   NOAA